sensor_id;sensor_type;location;lat;lon;timestamp;pressure;altitude;pressure_sealevel;temperature;humidity
33191;BME280;19554;42.652;23.364;2022-09-09T00:03:38;94785.97;;;20.80;55.78
33191;BME280;19554;42.652;23.364;2022-09-09T00:08:46;94840.53;;;21.06;55.92
33191;BME280;19554;42.652;23.364;2022-09-09T00:11:21;94812.47;;;20.71;56.59
33191;BME280;19554;42.652;23.364;2022-09-09T00:13:52;94834.25;;;20.74;56.59
33191;BME280;19554;42.652;23.364;2022-09-09T00:16:20;94846.69;;;20.75;56.77
33191;BME280;19554;42.652;23.364;2022-09-09T00:21:33;94842.06;;;20.76;56.31
33191;BME280;19554;42.652;23.364;2022-09-09T00:24:00;94841.06;;;20.68;56.26
33191;BME280;19554;42.652;23.364;2022-09-09T00:26:40;94824.50;;;20.57;57.17
33191;BME280;19554;42.652;23.364;2022-09-09T00:31:33;94802.16;;;20.48;57.03
33191;BME280;19554;42.652;23.364;2022-09-09T00:34:05;94824.50;;;20.57;57.05
33191;BME280;19554;42.652;23.364;2022-09-09T00:36:36;94815.25;;;20.58;57.17
33191;BME280;19554;42.652;23.364;2022-09-09T00:39:04;94824.16;;;20.59;57.00
33191;BME280;19554;42.652;23.364;2022-09-09T00:44:29;94807.44;;;20.57;56.77
33191;BME280;19554;42.652;23.364;2022-09-09T00:50:03;94788.50;;;20.45;58.06
33191;BME280;19554;42.652;23.364;2022-09-09T00:55:37;94799.94;;;20.38;57.96
33191;BME280;19554;42.652;23.364;2022-09-09T00:58:07;94802.44;;;20.31;57.93
33191;BME280;19554;42.652;23.364;2022-09-09T01:06:15;94794.56;;;20.13;58.25
33191;BME280;19554;42.652;23.364;2022-09-09T01:16:51;94804.34;;;20.30;57.26
33191;BME280;19554;42.652;23.364;2022-09-09T01:27:34;94807.41;;;20.29;56.22
33191;BME280;19554;42.652;23.364;2022-09-09T01:30:02;94797.25;;;20.26;56.82
33191;BME280;19554;42.652;23.364;2022-09-09T01:32:44;94747.13;;;19.92;57.17
33191;BME280;19554;42.652;23.364;2022-09-09T01:35:35;94794.81;;;20.21;57.63
33191;BME280;19554;42.652;23.364;2022-09-09T01:38:02;94799.88;;;20.10;57.84
33191;BME280;19554;42.652;23.364;2022-09-09T01:40:28;94806.13;;;19.98;58.26
33191;BME280;19554;42.652;23.364;2022-09-09T01:42:54;94801.44;;;19.83;58.17
33191;BME280;19554;42.652;23.364;2022-09-09T01:45:19;94819.69;;;19.98;58.42
33191;BME280;19554;42.652;23.364;2022-09-09T01:47:46;94814.28;;;19.98;58.00
33191;BME280;19554;42.652;23.364;2022-09-09T01:50:15;94812.03;;;20.00;58.17
33191;BME280;19554;42.652;23.364;2022-09-09T01:52:42;94806.59;;;20.00;58.15
33191;BME280;19554;42.652;23.364;2022-09-09T01:55:08;94821.25;;;19.99;58.61
33191;BME280;19554;42.652;23.364;2022-09-09T02:00:06;94821.16;;;19.96;58.85
33191;BME280;19554;42.652;23.364;2022-09-09T02:02:36;94830.53;;;19.98;58.70
33191;BME280;19554;42.652;23.364;2022-09-09T02:07:52;94777.06;;;19.71;58.40
33191;BME280;19554;42.652;23.364;2022-09-09T02:10:25;94808.63;;;19.91;58.38
33191;BME280;19554;42.652;23.364;2022-09-09T02:13:07;94817.91;;;19.90;58.54
33191;BME280;19554;42.652;23.364;2022-09-09T02:15:53;94782.81;;;19.57;59.08
33191;BME280;19554;42.652;23.364;2022-09-09T02:18:56;94816.09;;;19.82;59.37
33191;BME280;19554;42.652;23.364;2022-09-09T02:21:24;94727.91;;;19.32;58.99
33191;BME280;19554;42.652;23.364;2022-09-09T02:23:52;94794.44;;;19.82;58.73
33191;BME280;19554;42.652;23.364;2022-09-09T02:26:19;94789.00;;;19.82;58.91
33191;BME280;19554;42.652;23.364;2022-09-09T02:28:49;94793.75;;;19.85;59.45
33191;BME280;19554;42.652;23.364;2022-09-09T02:31:17;94804.47;;;19.81;58.90
33191;BME280;19554;42.652;23.364;2022-09-09T02:33:48;94796.94;;;19.62;58.64
33191;BME280;19554;42.652;23.364;2022-09-09T02:36:18;94806.88;;;19.71;58.83
33191;BME280;19554;42.652;23.364;2022-09-09T02:38:46;94810.72;;;19.70;59.05
33191;BME280;19554;42.652;23.364;2022-09-09T02:41:26;94748.44;;;19.21;58.94
33191;BME280;19554;42.652;23.364;2022-09-09T02:43:53;94814.28;;;19.61;58.98
33191;BME280;19554;42.652;23.364;2022-09-09T02:51:19;94829.97;;;19.56;58.94
33191;BME280;19554;42.652;23.364;2022-09-09T02:56:21;94832.13;;;19.50;57.84
33191;BME280;19554;42.652;23.364;2022-09-09T02:58:50;94826.69;;;19.50;57.87
33191;BME280;19554;42.652;23.364;2022-09-09T03:01:17;94823.22;;;19.50;57.59
33191;BME280;19554;42.652;23.364;2022-09-09T03:03:42;94819.72;;;19.49;57.69
33191;BME280;19554;42.652;23.364;2022-09-09T03:06:09;94821.63;;;19.36;59.33
33191;BME280;19554;42.652;23.364;2022-09-09T03:08:37;94826.38;;;19.39;59.96
33191;BME280;19554;42.652;23.364;2022-09-09T03:11:02;94824.91;;;19.42;59.90
33191;BME280;19554;42.652;23.364;2022-09-09T03:13:28;94823.53;;;19.48;59.71
33191;BME280;19554;42.652;23.364;2022-09-09T03:15:54;94830.97;;;19.51;59.51
33191;BME280;19554;42.652;23.364;2022-09-09T03:18:19;94833.69;;;19.51;59.05
33191;BME280;19554;42.652;23.364;2022-09-09T03:20:46;94830.66;;;19.53;59.12
33191;BME280;19554;42.652;23.364;2022-09-09T03:23:13;94828.75;;;19.53;59.24
33191;BME280;19554;42.652;23.364;2022-09-09T03:25:39;94827.59;;;19.54;59.28
33191;BME280;19554;42.652;23.364;2022-09-09T03:28:04;94819.03;;;19.52;59.37
33191;BME280;19554;42.652;23.364;2022-09-09T03:30:30;94818.47;;;19.47;60.06
33191;BME280;19554;42.652;23.364;2022-09-09T03:32:56;94826.69;;;19.50;59.81
33191;BME280;19554;42.652;23.364;2022-09-09T03:35:22;94828.28;;;19.51;60.00
33191;BME280;19554;42.652;23.364;2022-09-09T03:37:47;94739.16;;;18.97;60.02
33191;BME280;19554;42.652;23.364;2022-09-09T03:40:13;94830.66;;;19.53;60.00
33191;BME280;19554;42.652;23.364;2022-09-09T03:42:39;94826.59;;;19.47;59.92
33191;BME280;19554;42.652;23.364;2022-09-09T03:45:06;94816.44;;;19.44;59.83
33191;BME280;19554;42.652;23.364;2022-09-09T03:47:33;94818.13;;;19.48;59.68
33191;BME280;19554;42.652;23.364;2022-09-09T03:49:58;94818.13;;;19.48;59.33
33191;BME280;19554;42.652;23.364;2022-09-09T03:52:24;94825.13;;;19.49;59.77
33191;BME280;19554;42.652;23.364;2022-09-09T03:54:51;94829.41;;;19.50;59.22
33191;BME280;19554;42.652;23.364;2022-09-09T03:57:18;94829.88;;;19.52;59.19
33191;BME280;19554;42.652;23.364;2022-09-09T03:59:43;94833.69;;;19.51;58.90
33191;BME280;19554;42.652;23.364;2022-09-09T04:02:09;94824.34;;;19.49;59.45
33191;BME280;19554;42.652;23.364;2022-09-09T04:04:35;94821.28;;;19.38;59.24
33191;BME280;19554;42.652;23.364;2022-09-09T04:07:00;94838.75;;;19.40;59.26
33191;BME280;19554;42.652;23.364;2022-09-09T04:09:26;94804.03;;;19.18;58.93
33191;BME280;19554;42.652;23.364;2022-09-09T04:11:52;94834.56;;;19.31;58.84
33191;BME280;19554;42.652;23.364;2022-09-09T04:14:18;94835.47;;;19.35;58.98
33191;BME280;19554;42.652;23.364;2022-09-09T04:16:44;94836.53;;;19.42;58.93
33191;BME280;19554;42.652;23.364;2022-09-09T04:19:10;94830.88;;;19.48;58.11
33191;BME280;19554;42.652;23.364;2022-09-09T04:21:39;94835.28;;;19.52;57.57
33191;BME280;19554;42.652;23.364;2022-09-09T04:24:06;94750.47;;;19.11;57.69
33191;BME280;19554;42.652;23.364;2022-09-09T04:26:32;94826.50;;;19.68;57.59
33191;BME280;19554;42.652;23.364;2022-09-09T04:28:58;94828.28;;;19.76;57.91
33191;BME280;19554;42.652;23.364;2022-09-09T04:31:24;94831.56;;;19.81;58.14
33191;BME280;19554;42.652;23.364;2022-09-09T04:33:50;94840.91;;;19.96;57.42
33191;BME280;19554;42.652;23.364;2022-09-09T04:36:16;94828.47;;;20.07;56.85
33191;BME280;19554;42.652;23.364;2022-09-09T04:38:41;94830.25;;;20.28;56.08
33191;BME280;19554;42.652;23.364;2022-09-09T04:41:07;94833.53;;;20.49;55.63
33191;BME280;19554;42.652;23.364;2022-09-09T04:43:33;94840.19;;;20.64;55.20
33191;BME280;19554;42.652;23.364;2022-09-09T04:45:58;94842.94;;;20.80;54.43
33191;BME280;19554;42.652;23.364;2022-09-09T04:48:26;94854.56;;;20.80;54.61
33191;BME280;19554;42.652;23.364;2022-09-09T04:51:01;94837.22;;;20.69;54.38
33191;BME280;19554;42.652;23.364;2022-09-09T04:53:27;94815.25;;;20.58;54.63
33191;BME280;19554;42.652;23.364;2022-09-09T04:56:07;94822.34;;;20.63;54.78
33191;BME280;19554;42.652;23.364;2022-09-09T04:58:35;94818.56;;;20.68;55.11
33191;BME280;19554;42.652;23.364;2022-09-09T05:03:36;94815.03;;;20.95;55.96
33191;BME280;19554;42.652;23.364;2022-09-09T05:08:29;94799.56;;;20.52;56.82
33191;BME280;19554;42.652;23.364;2022-09-09T05:10:54;94809.13;;;20.62;56.85
33191;BME280;19554;42.652;23.364;2022-09-09T05:13:20;94807.41;;;20.85;56.36
33191;BME280;19554;42.652;23.364;2022-09-09T05:15:53;94804.47;;;21.22;55.18
33191;BME280;19554;42.652;23.364;2022-09-09T05:18:18;94811.47;;;21.23;54.41
33191;BME280;19554;42.652;23.364;2022-09-09T05:20:44;94824.47;;;21.45;53.67
33191;BME280;19554;42.652;23.364;2022-09-09T05:23:09;94815.00;;;21.71;52.81
33191;BME280;19554;42.652;23.364;2022-09-09T05:25:38;94801.31;;;22.03;51.65
33191;BME280;19554;42.652;23.364;2022-09-09T05:28:04;94803.34;;;22.06;51.29
33191;BME280;19554;42.652;23.364;2022-09-09T05:30:30;94798.16;;;22.16;50.79
33191;BME280;19554;42.652;23.364;2022-09-09T05:32:56;94808.06;;;22.09;50.82
33191;BME280;19554;42.652;23.364;2022-09-09T05:35:21;94804.66;;;22.31;50.24
33191;BME280;19554;42.652;23.364;2022-09-09T05:37:48;94794.84;;;22.46;50.02
33191;BME280;19554;42.652;23.364;2022-09-09T05:40:14;94730.97;;;22.36;49.40
33191;BME280;19554;42.652;23.364;2022-09-09T05:42:40;94803.19;;;22.76;49.05
33191;BME280;19554;42.652;23.364;2022-09-09T05:45:07;94801.38;;;23.03;48.29
33191;BME280;19554;42.652;23.364;2022-09-09T05:47:33;94797.31;;;22.93;48.67
33191;BME280;19554;42.652;23.364;2022-09-09T05:49:59;94812.53;;;22.94;48.95
33191;BME280;19554;42.652;23.364;2022-09-09T05:52:24;94760.56;;;22.61;49.13
33191;BME280;19554;42.652;23.364;2022-09-09T05:54:51;94800.72;;;23.10;48.35
33191;BME280;19554;42.652;23.364;2022-09-09T05:57:16;94804.63;;;23.09;48.57
33191;BME280;19554;42.652;23.364;2022-09-09T05:59:42;94803.81;;;23.31;47.58
33191;BME280;19554;42.652;23.364;2022-09-09T06:02:08;94809.69;;;23.33;46.85
33191;BME280;19554;42.652;23.364;2022-09-09T06:04:34;94809.63;;;23.30;47.05
33191;BME280;19554;42.652;23.364;2022-09-09T06:07:00;94813.47;;;23.52;46.73
33191;BME280;19554;42.652;23.364;2022-09-09T06:09:26;94823.34;;;23.60;46.41
33191;BME280;19554;42.652;23.364;2022-09-09T06:11:51;94756.44;;;23.13;46.27
33191;BME280;19554;42.652;23.364;2022-09-09T06:14:17;94833.41;;;23.56;45.87
33191;BME280;19554;42.652;23.364;2022-09-09T06:16:43;94830.69;;;23.79;45.41
33191;BME280;19554;42.652;23.364;2022-09-09T06:19:09;94820.88;;;24.01;45.31
33191;BME280;19554;42.652;23.364;2022-09-09T06:21:36;94793.63;;;24.01;44.62
33191;BME280;19554;42.652;23.364;2022-09-09T06:24:03;94816.34;;;24.12;44.36
33191;BME280;19554;42.652;23.364;2022-09-09T06:26:30;94825.84;;;24.22;44.64
33191;BME280;19554;42.652;23.364;2022-09-09T06:28:57;94810.56;;;24.44;43.90
33191;BME280;19554;42.652;23.364;2022-09-09T06:31:25;94830.66;;;24.32;43.82
33191;BME280;19554;42.652;23.364;2022-09-09T06:33:53;94828.09;;;24.16;43.94
33191;BME280;19554;42.652;23.364;2022-09-09T06:36:22;94815.72;;;24.22;44.33
33191;BME280;19554;42.652;23.364;2022-09-09T06:38:48;94813.72;;;24.46;43.97
33191;BME280;19554;42.652;23.364;2022-09-09T06:41:15;94809.53;;;24.55;43.66
33191;BME280;19554;42.652;23.364;2022-09-09T06:43:41;94810.56;;;24.44;44.12
33191;BME280;19554;42.652;23.364;2022-09-09T06:46:23;94810.81;;;24.35;44.01
33191;BME280;19554;42.652;23.364;2022-09-09T06:48:49;94812.88;;;24.42;44.09
33191;BME280;19554;42.652;23.364;2022-09-09T06:51:22;94807.63;;;24.59;43.86
33191;BME280;19554;42.652;23.364;2022-09-09T06:53:50;94822.44;;;24.58;43.47
33191;BME280;19554;42.652;23.364;2022-09-09T06:58:42;94817.19;;;24.76;43.13
33191;BME280;19554;42.652;23.364;2022-09-09T07:01:10;94827.75;;;25.15;42.48
33191;BME280;19554;42.652;23.364;2022-09-09T07:03:38;94799.81;;;25.33;41.79
33191;BME280;19554;42.652;23.364;2022-09-09T07:06:04;94811.81;;;25.65;40.92
33191;BME280;19554;42.652;23.364;2022-09-09T07:08:29;94826.75;;;25.79;41.05
33191;BME280;19554;42.652;23.364;2022-09-09T07:11:02;94835.13;;;25.52;41.67
33191;BME280;19554;42.652;23.364;2022-09-09T07:13:29;94830.53;;;25.63;41.41
33191;BME280;19554;42.652;23.364;2022-09-09T07:15:55;94823.22;;;25.74;41.25
33191;BME280;19554;42.652;23.364;2022-09-09T07:18:20;94827.22;;;25.88;40.98
33191;BME280;19554;42.652;23.364;2022-09-09T07:20:55;94822.03;;;25.75;40.95
33191;BME280;19554;42.652;23.364;2022-09-09T07:23:22;94815.25;;;25.55;41.23
33191;BME280;19554;42.652;23.364;2022-09-09T07:25:48;94821.06;;;25.53;41.51
33191;BME280;19554;42.652;23.364;2022-09-09T07:28:14;94777.16;;;25.28;41.78
33191;BME280;19554;42.652;23.364;2022-09-09T07:30:40;94813.25;;;25.52;40.68
33191;BME280;19554;42.652;23.364;2022-09-09T07:33:06;94811.84;;;25.72;39.40
33191;BME280;19554;42.652;23.364;2022-09-09T07:35:32;94797.59;;;25.45;39.85
33191;BME280;19554;42.652;23.364;2022-09-09T07:37:58;94811.09;;;25.75;39.77
33191;BME280;19554;42.652;23.364;2022-09-09T07:40:25;94810.06;;;25.94;38.91
33191;BME280;19554;42.652;23.364;2022-09-09T07:42:50;94800.25;;;25.83;38.66
33191;BME280;19554;42.652;23.364;2022-09-09T07:45:16;94761.97;;;25.83;39.07
33191;BME280;19554;42.652;23.364;2022-09-09T07:47:41;94817.78;;;26.44;38.66
33191;BME280;19554;42.652;23.364;2022-09-09T07:50:10;94823.38;;;26.65;38.22
33191;BME280;19554;42.652;23.364;2022-09-09T07:52:35;94756.78;;;26.40;37.88
33191;BME280;19554;42.652;23.364;2022-09-09T07:55:02;94825.81;;;26.85;37.35
33191;BME280;19554;42.652;23.364;2022-09-09T07:57:29;94770.16;;;26.59;37.28
33191;BME280;19554;42.652;23.364;2022-09-09T07:59:58;94814.16;;;27.16;37.06
33191;BME280;19554;42.652;23.364;2022-09-09T08:02:24;94816.84;;;27.06;36.47
33191;BME280;19554;42.652;23.364;2022-09-09T08:04:50;94807.06;;;27.08;36.89
33191;BME280;19554;42.652;23.364;2022-09-09T08:07:17;94813.31;;;27.02;37.49
33191;BME280;19554;42.652;23.364;2022-09-09T08:09:42;94811.41;;;27.13;37.02
33191;BME280;19554;42.652;23.364;2022-09-09T08:12:09;94786.66;;;26.81;37.04
33191;BME280;19554;42.652;23.364;2022-09-09T08:14:36;94810.13;;;26.75;37.22
33191;BME280;19554;42.652;23.364;2022-09-09T08:17:01;94806.19;;;26.68;37.17
33191;BME280;19554;42.652;23.364;2022-09-09T08:19:27;94807.66;;;26.48;37.37
33191;BME280;19554;42.652;23.364;2022-09-09T08:21:55;94813.44;;;26.36;37.95
33191;BME280;19554;42.652;23.364;2022-09-09T08:24:20;94806.03;;;26.40;37.69
33191;BME280;19554;42.652;23.364;2022-09-09T08:26:47;94744.09;;;25.99;37.62
33191;BME280;19554;42.652;23.364;2022-09-09T08:29:17;94811.09;;;26.38;37.73
33191;BME280;19554;42.652;23.364;2022-09-09T08:31:48;94813.81;;;26.34;37.59
33191;BME280;19554;42.652;23.364;2022-09-09T08:34:14;94807.53;;;26.27;37.97
33191;BME280;19554;42.652;23.364;2022-09-09T08:36:44;94810.66;;;26.25;37.61
33191;BME280;19554;42.652;23.364;2022-09-09T08:39:13;94795.75;;;26.15;37.95
33191;BME280;19554;42.652;23.364;2022-09-09T08:49:55;94800.47;;;26.26;38.49
33191;BME280;19554;42.652;23.364;2022-09-09T08:57:56;94797.44;;;26.45;38.28
33191;BME280;19554;42.652;23.364;2022-09-09T09:00:22;94778.28;;;26.41;38.11
33191;BME280;19554;42.652;23.364;2022-09-09T09:03:15;94798.28;;;26.49;38.04
33191;BME280;19554;42.652;23.364;2022-09-09T09:08:44;94799.66;;;26.14;39.18
33191;BME280;19554;42.652;23.364;2022-09-09T09:11:13;94802.00;;;26.12;39.55
33191;BME280;19554;42.652;23.364;2022-09-09T09:13:59;94800.03;;;26.09;39.60
33191;BME280;19554;42.652;23.364;2022-09-09T09:16:36;94780.94;;;26.23;39.25
33191;BME280;19554;42.652;23.364;2022-09-09T09:19:04;94788.56;;;26.62;38.82
33191;BME280;19554;42.652;23.364;2022-09-09T09:24:10;94778.03;;;26.79;38.36
33191;BME280;19554;42.652;23.364;2022-09-09T09:26:42;94764.75;;;26.74;38.32
33191;BME280;19554;42.652;23.364;2022-09-09T09:29:14;94763.16;;;26.80;37.61
33191;BME280;19554;42.652;23.364;2022-09-09T09:31:44;94729.09;;;26.59;37.97
33191;BME280;19554;42.652;23.364;2022-09-09T09:34:10;94799.50;;;26.62;38.35
33191;BME280;19554;42.652;23.364;2022-09-09T09:36:45;94792.88;;;26.63;38.50
33191;BME280;19554;42.652;23.364;2022-09-09T09:39:26;94792.16;;;26.81;38.42
33191;BME280;19554;42.652;23.364;2022-09-09T09:41:52;94769.41;;;26.69;38.11
33191;BME280;19554;42.652;23.364;2022-09-09T09:46:49;94783.53;;;26.89;37.45
33191;BME280;19554;42.652;23.364;2022-09-09T09:49:15;94782.03;;;27.10;37.37
33191;BME280;19554;42.652;23.364;2022-09-09T09:51:41;94728.00;;;27.07;37.02
33191;BME280;19554;42.652;23.364;2022-09-09T09:56:44;94732.72;;;27.13;36.72
33191;BME280;19554;42.652;23.364;2022-09-09T09:59:42;94759.34;;;27.38;37.00
33191;BME280;19554;42.652;23.364;2022-09-09T10:02:21;94759.38;;;27.52;37.17
33191;BME280;19554;42.652;23.364;2022-09-09T10:05:01;94755.84;;;27.62;37.54
33191;BME280;19554;42.652;23.364;2022-09-09T10:07:26;94755.44;;;27.60;36.99
33191;BME280;19554;42.652;23.364;2022-09-09T10:09:56;94754.66;;;27.63;36.65
33191;BME280;19554;42.652;23.364;2022-09-09T10:12:39;94764.84;;;27.70;36.17
33191;BME280;19554;42.652;23.364;2022-09-09T10:20:35;94767.56;;;27.74;36.50
33191;BME280;19554;42.652;23.364;2022-09-09T10:23:29;94778.94;;;27.40;36.96
33191;BME280;19554;42.652;23.364;2022-09-09T10:26:42;94779.72;;;27.30;37.31
33191;BME280;19554;42.652;23.364;2022-09-09T10:40:19;94777.28;;;26.85;38.47
33191;BME280;19554;42.652;23.364;2022-09-09T10:42:49;94783.50;;;26.72;38.51
33191;BME280;19554;42.652;23.364;2022-09-09T10:45:21;94728.97;;;26.27;38.83
33191;BME280;19554;42.652;23.364;2022-09-09T10:51:28;94782.53;;;26.35;39.86
33191;BME280;19554;42.652;23.364;2022-09-09T10:56:40;94761.41;;;26.29;39.49
33191;BME280;19554;42.652;23.364;2022-09-09T10:59:20;94774.72;;;26.34;39.78
33191;BME280;19554;42.652;23.364;2022-09-09T11:01:59;94787.22;;;26.28;39.84
33191;BME280;19554;42.652;23.364;2022-09-09T11:04:51;94777.03;;;26.28;39.99
33191;BME280;19554;42.652;23.364;2022-09-09T11:07:29;94784.84;;;26.19;40.17
33191;BME280;19554;42.652;23.364;2022-09-09T11:10:02;94790.25;;;26.12;40.71
33191;BME280;19554;42.652;23.364;2022-09-09T11:12:34;94785.50;;;26.02;41.22
33191;BME280;19554;42.652;23.364;2022-09-09T11:15:06;94793.28;;;25.96;41.63
33191;BME280;19554;42.652;23.364;2022-09-09T11:17:53;94792.91;;;26.01;41.83
33191;BME280;19554;42.652;23.364;2022-09-09T11:20:22;94773.34;;;25.92;41.98
33191;BME280;19554;42.652;23.364;2022-09-09T11:22:59;94775.41;;;26.09;41.68
33191;BME280;19554;42.652;23.364;2022-09-09T11:25:36;94767.63;;;26.18;41.20
33191;BME280;19554;42.652;23.364;2022-09-09T11:32:18;94763.78;;;26.37;41.59
33191;BME280;19554;42.652;23.364;2022-09-09T11:40:23;94740.03;;;26.52;40.93
33191;BME280;19554;42.652;23.364;2022-09-09T11:43:11;94730.56;;;26.46;41.09
33191;BME280;19554;42.652;23.364;2022-09-09T11:45:39;94740.41;;;26.47;41.73
33191;BME280;19554;42.652;23.364;2022-09-09T11:48:23;94716.84;;;26.32;41.56
33191;BME280;19554;42.652;23.364;2022-09-09T11:53:28;94700.34;;;26.03;42.21
33191;BME280;19554;42.652;23.364;2022-09-09T11:56:22;94684.63;;;25.86;43.12
33191;BME280;19554;42.652;23.364;2022-09-09T11:59:06;94687.31;;;25.79;43.24
33191;BME280;19554;42.652;23.364;2022-09-09T12:01:36;94695.56;;;25.86;43.12
33191;BME280;19554;42.652;23.364;2022-09-09T12:04:13;94695.59;;;25.93;42.71
33191;BME280;19554;42.652;23.364;2022-09-09T12:06:50;94716.28;;;25.87;43.53
33191;BME280;19554;42.652;23.364;2022-09-09T12:09:25;94714.72;;;25.89;43.23
33191;BME280;19554;42.652;23.364;2022-09-09T12:11:52;94697.16;;;25.94;43.10
33191;BME280;19554;42.652;23.364;2022-09-09T12:14:43;94698.38;;;26.07;43.09
33191;BME280;19554;42.652;23.364;2022-09-09T12:19:39;94638.84;;;25.75;42.78
33191;BME280;19554;42.652;23.364;2022-09-09T12:24:58;94611.34;;;25.47;43.32
33191;BME280;19554;42.652;23.364;2022-09-09T12:27:39;94688.59;;;25.99;43.15
33191;BME280;19554;42.652;23.364;2022-09-09T12:30:17;94615.75;;;25.62;43.20
33191;BME280;19554;42.652;23.364;2022-09-09T12:32:42;94683.19;;;26.13;42.88
33191;BME280;19554;42.652;23.364;2022-09-09T12:35:12;94672.28;;;26.28;42.29
33191;BME280;19554;42.652;23.364;2022-09-09T12:37:48;94669.97;;;26.37;42.68
33191;BME280;19554;42.652;23.364;2022-09-09T12:40:25;94658.25;;;26.40;42.25
33191;BME280;19554;42.652;23.364;2022-09-09T12:42:51;94671.59;;;26.52;41.89
33191;BME280;19554;42.652;23.364;2022-09-09T12:45:22;94657.53;;;26.64;41.47
33191;BME280;19554;42.652;23.364;2022-09-09T12:48:09;94654.81;;;26.72;41.71
33191;BME280;19554;42.652;23.364;2022-09-09T12:50:48;94658.72;;;26.74;42.19
33191;BME280;19554;42.652;23.364;2022-09-09T12:53:29;94661.47;;;26.67;41.99
33191;BME280;19554;42.652;23.364;2022-09-09T12:55:59;94663.00;;;26.57;42.18
33191;BME280;19554;42.652;23.364;2022-09-09T12:58:25;94658.69;;;26.56;42.07
33191;BME280;19554;42.652;23.364;2022-09-09T13:00:55;94640.31;;;26.53;42.57
33191;BME280;19554;42.652;23.364;2022-09-09T13:03:23;94636.81;;;26.63;42.24
33191;BME280;19554;42.652;23.364;2022-09-09T13:05:50;94629.38;;;26.60;42.19
33191;BME280;19554;42.652;23.364;2022-09-09T13:08:17;94627.78;;;26.66;42.22
33191;BME280;19554;42.652;23.364;2022-09-09T13:11:01;94634.06;;;26.78;41.35
33191;BME280;19554;42.652;23.364;2022-09-09T13:15:57;94583.22;;;26.59;41.69
33191;BME280;19554;42.652;23.364;2022-09-09T13:18:36;94630.56;;;27.02;41.44
33191;BME280;19554;42.652;23.364;2022-09-09T13:21:03;94632.50;;;27.02;41.71
33191;BME280;19554;42.652;23.364;2022-09-09T13:23:30;94616.09;;;26.91;41.58
33191;BME280;19554;42.652;23.364;2022-09-09T13:26:24;94620.75;;;26.90;42.07
33191;BME280;19554;42.652;23.364;2022-09-09T13:28:51;94614.91;;;26.92;42.29
33191;BME280;19554;42.652;23.364;2022-09-09T13:31:32;94604.31;;;26.87;42.31
33191;BME280;19554;42.652;23.364;2022-09-09T13:33:59;94613.72;;;27.00;42.19
33191;BME280;19554;42.652;23.364;2022-09-09T13:36:30;94610.19;;;26.92;42.55
33191;BME280;19554;42.652;23.364;2022-09-09T13:38:58;94596.53;;;26.71;42.81
33191;BME280;19554;42.652;23.364;2022-09-09T13:41:35;94601.59;;;26.51;43.42
33191;BME280;19554;42.652;23.364;2022-09-09T13:44:03;94594.88;;;26.31;44.62
33191;BME280;19554;42.652;23.364;2022-09-09T13:51:38;94590.94;;;26.21;44.71
33191;BME280;19554;42.652;23.364;2022-09-09T13:54:05;94589.00;;;26.14;44.90
33191;BME280;19554;42.652;23.364;2022-09-09T13:56:34;94524.38;;;25.70;45.44
33191;BME280;19554;42.652;23.364;2022-09-09T13:59:01;94574.47;;;25.85;45.55
33191;BME280;19554;42.652;23.364;2022-09-09T14:01:27;94574.34;;;25.64;45.40
33191;BME280;19554;42.652;23.364;2022-09-09T14:03:53;94598.97;;;25.67;45.23
33191;BME280;19554;42.652;23.364;2022-09-09T14:06:18;94606.38;;;25.63;45.62
33191;BME280;19554;42.652;23.364;2022-09-09T14:08:44;94589.22;;;25.73;46.10
33191;BME280;19554;42.652;23.364;2022-09-09T14:11:12;94593.94;;;25.76;45.84
33191;BME280;19554;42.652;23.364;2022-09-09T14:13:38;94599.41;;;25.76;45.79
33191;BME280;19554;42.652;23.364;2022-09-09T14:16:03;94590.00;;;25.77;45.44
33191;BME280;19554;42.652;23.364;2022-09-09T14:18:29;94583.06;;;25.87;45.63
33191;BME280;19554;42.652;23.364;2022-09-09T14:20:54;94581.50;;;25.86;44.81
33191;BME280;19554;42.652;23.364;2022-09-09T14:23:20;94547.81;;;25.64;44.05
33191;BME280;19554;42.652;23.364;2022-09-09T14:25:47;94585.81;;;25.98;44.21
33191;BME280;19554;42.652;23.364;2022-09-09T14:28:13;94581.94;;;25.99;44.83
33191;BME280;19554;42.652;23.364;2022-09-09T14:30:40;94571.34;;;25.94;45.00
33191;BME280;19554;42.652;23.364;2022-09-09T14:33:09;94576.06;;;26.04;44.56
33191;BME280;19554;42.652;23.364;2022-09-09T14:35:35;94588.16;;;25.96;44.86
33191;BME280;19554;42.652;23.364;2022-09-09T14:38:02;94581.16;;;26.02;44.77
33191;BME280;19554;42.652;23.364;2022-09-09T14:40:28;94549.84;;;25.82;43.86
33191;BME280;19554;42.652;23.364;2022-09-09T14:42:53;94578.03;;;26.14;43.77
33191;BME280;19554;42.652;23.364;2022-09-09T14:45:19;94569.47;;;26.19;43.93
33191;BME280;19554;42.652;23.364;2022-09-09T14:47:46;94577.28;;;26.28;43.59
33191;BME280;19554;42.652;23.364;2022-09-09T14:50:12;94562.41;;;26.26;43.61
33191;BME280;19554;42.652;23.364;2022-09-09T14:52:39;94557.34;;;26.20;43.99
33191;BME280;19554;42.652;23.364;2022-09-09T14:55:05;94575.31;;;26.14;44.22
33191;BME280;19554;42.652;23.364;2022-09-09T14:57:31;94567.09;;;26.14;44.48
33191;BME280;19554;42.652;23.364;2022-09-09T14:59:56;94543.19;;;25.83;44.49
33191;BME280;19554;42.652;23.364;2022-09-09T15:02:22;94526.75;;;25.72;44.84
33191;BME280;19554;42.652;23.364;2022-09-09T15:04:48;94561.94;;;25.81;44.90
33191;BME280;19554;42.652;23.364;2022-09-09T15:07:15;94571.25;;;25.72;44.74
33191;BME280;19554;42.652;23.364;2022-09-09T15:09:41;94579.81;;;25.64;45.03
33191;BME280;19554;42.652;23.364;2022-09-09T15:12:07;94583.72;;;25.66;45.57
33191;BME280;19554;42.652;23.364;2022-09-09T15:14:32;94592.72;;;25.70;45.24
33191;BME280;19554;42.652;23.364;2022-09-09T15:16:58;94591.19;;;25.73;45.59